Flight Track Log - Related Links

Times and Time Zones

All times are in EDT time to prevent confusion due to time zone crossing. See the N509CS flight status page for this flight to view local times or setup timezone preferences in your user account.

Time Position Orientation Groundspeed Altitude Reporting Facility
EDT Latitude Longitude Course Direction KTS MPH feet Rate Location/Type
Sat 12:38:55 PM 33.0286 -87.5397 161° South 129 148 6,100  Level Atlanta Center
Sat 12:46:32 PM 32.7658 -87.4302 161° South  Level FlightAware Approximate
Sat 12:47:32 PM 32.7312 -87.4158 161° South  Level FlightAware Approximate
Sat 12:48:32 PM 32.6967 -87.4015 161° South  Level FlightAware Approximate
Sat 12:49:32 PM 32.6622 -87.3872 161° South  Level FlightAware Approximate
Sat 12:50:32 PM 32.6277 -87.3729 161° South  Level FlightAware Approximate
Sat 12:51:32 PM 32.5932 -87.3586 161° South  Level FlightAware Approximate
Sat 12:52:32 PM 32.5586 -87.3443 161° South  Level FlightAware Approximate
Sat 12:53:32 PM 32.5241 -87.3301 161° South  Level FlightAware Approximate
Sat 12:54:32 PM 32.4896 -87.3158 161° South  Level FlightAware Approximate
Sat 12:55:32 PM 32.4550 -87.3016 138° Southeast  Level FlightAware Approximate
Sat 12:56:32 PM 32.4307 -87.2756 161° South  Level FlightAware Approximate
Sat 12:57:32 PM 32.3961 -87.2616 161° South  Level FlightAware Approximate
Sat 12:58:32 PM 32.3615 -87.2477 161° South  Level FlightAware Approximate
Sat 12:59:32 PM 32.3269 -87.2337 161° South  Level FlightAware Approximate
Sat 01:00:32 PM 32.2923 -87.2198 161° South  Level FlightAware Approximate
Sat 01:01:32 PM 32.2576 -87.2058 161° South  Level FlightAware Approximate
Sat 01:02:32 PM 32.2230 -87.1919 161° South  Level FlightAware Approximate
Sat 01:03:32 PM 32.1884 -87.1780 161° South  Level FlightAware Approximate
Sat 01:04:32 PM 32.1538 -87.1641 161° South  Level FlightAware Approximate
Sat 01:05:32 PM 32.1192 -87.1503 161° South  Level FlightAware Approximate
Sat 01:06:32 PM 32.0845 -87.1364 161° South  Level FlightAware Approximate
Sat 01:07:32 PM 32.0499 -87.1225 161° South  Level FlightAware Approximate
Sat 01:08:32 PM 32.0153 -87.1087 161° South  Level FlightAware Approximate
Sat 01:09:32 PM 31.9807 -87.0948 161° South  Level FlightAware Approximate
Sat 01:10:32 PM 31.9460 -87.0810 161° South  Level FlightAware Approximate
Sat 01:11:32 PM 31.9114 -87.0672 161° South  Level FlightAware Approximate
Sat 01:12:32 PM 31.8768 -87.0534 161° South  Level FlightAware Approximate
Sat 01:13:32 PM 31.8421 -87.0396 161° South  Level FlightAware Approximate
Sat 01:14:32 PM 31.8075 -87.0258 161° South  Level FlightAware Approximate
Sat 01:15:32 PM 31.7729 -87.0120 161° South  Level FlightAware Approximate
Sat 01:16:32 PM 31.7382 -86.9982 161° South  Level FlightAware Approximate
Sat 01:17:32 PM 31.7036 -86.9845 161° South  Level FlightAware Approximate
Sat 01:18:32 PM 31.6690 -86.9707 161° South  Level FlightAware Approximate
Sat 01:19:32 PM 31.6343 -86.9570 161° South  Level FlightAware Approximate
Sat 01:20:32 PM 31.5997 -86.9432 161° South  Level FlightAware Approximate
Sat 01:21:32 PM 31.5650 -86.9295 161° South  Level FlightAware Approximate
Sat 01:22:32 PM 31.5304 -86.9158 161° South  Level FlightAware Approximate
Sat 01:23:32 PM 31.4957 -86.9021 167° South  Level FlightAware Approximate
Sat 01:24:32 PM 31.4602 -86.8923 163° South  Level FlightAware Approximate
Sat 01:25:32 PM 31.4252 -86.8801 161° South  Level FlightAware Approximate
Sat 01:26:32 PM 31.3906 -86.8662 161° South  Level FlightAware Approximate
Sat 01:27:32 PM 31.3560 -86.8524 161° South  Level FlightAware Approximate
Sat 01:28:32 PM 31.3214 -86.8385 161° South  Level FlightAware Approximate
Sat 01:29:32 PM 31.2868 -86.8247 161° South  Level FlightAware Approximate
Sat 01:30:32 PM 31.2522 -86.8109 161° South  Level FlightAware Approximate
Sat 01:31:32 PM 31.2176 -86.7971 161° South  Level FlightAware Approximate
Sat 01:32:32 PM 31.1831 -86.7831 156° South  Level FlightAware Approximate
Sat 01:33:32 PM 31.1517 -86.7667 161° South  Level FlightAware Approximate
Sat 01:34:32 PM 31.1170 -86.7531 161° South  Level FlightAware Approximate
Sat 01:35:32 PM 31.0824 -86.7395 161° South  Level FlightAware Approximate
Sat 01:36:32 PM 31.0477 -86.7259 161° South  Level FlightAware Approximate
Sat 01:37:32 PM 31.0130 -86.7124 160° South  Level FlightAware Approximate
Sat 01:38:32 PM 30.9804 -86.6987 162° South  Level FlightAware Approximate
Sat 01:39:32 PM 30.9457 -86.6852 162° South  Level FlightAware Approximate
Sat 01:40:32 PM 30.9111 -86.6718 162° South  Level FlightAware Approximate
Sat 01:41:32 PM 30.8764 -86.6583 162° South  Level FlightAware Approximate
Sat 01:42:32 PM 30.8417 -86.6448 162° South  Level FlightAware Approximate
Sat 01:43:32 PM 30.8070 -86.6314 162° South  Level FlightAware Approximate
Sat 01:44:32 PM 30.7723 -86.6179 162° South  Level FlightAware Approximate
Sat 01:45:32 PM 30.7376 -86.6045 145° Southeast  Level FlightAware Approximate
Sat 01:46:32 PM 30.7083 -86.5802 164° South  Level FlightAware Approximate
Sat 01:47:32 PM 30.6731 -86.5685 164° South  Level FlightAware Approximate
Sat 01:48:32 PM 30.6380 -86.5568 164° South  Level FlightAware Approximate
Sat 01:49:32 PM 30.6028 -86.5451 158° South  Level FlightAware Approximate
Sat 01:50:32 PM 30.5692 -86.5293 166° South  Level FlightAware Approximate
Sat 01:51:32 PM 30.5337 -86.5191 166° South  Level FlightAware Approximate
Sat 01:52:32 PM 30.4982 -86.5090 165° South  Level FlightAware Approximate
Sat 01:53:32 PM 30.4629 -86.4981 160° South  Level FlightAware Approximate
Sat 01:54:32 PM 30.4285 -86.4835 153° Southeast  Level Estimated
Sat 01:55:32 PM 30.4000 -86.4667 271° West  Level FlightAware Approximate
Sat 01:56:32 PM 30.4005 -86.5090 91° East  Level Estimated
Sat 01:57:32 PM 30.4000 -86.4667 271° West  Level FlightAware Approximate
Sat 01:58:32 PM 30.4005 -86.5090 91° East  Level Estimated
Sat 01:59:32 PM 30.4000 -86.4667 271° West  Level FlightAware Approximate
Sat 02:00:32 PM 30.4005 -86.5090 91° East  Level Estimated
Sat 02:01:32 PM 30.4000 -86.4667 271° West  Level FlightAware Approximate
Sat 02:02:32 PM 30.4005 -86.5090 91° East  Level Estimated
Sat 02:03:32 PM 30.4000 -86.4667 271° West  Level FlightAware Approximate
Sat 02:04:32 PM 30.4005 -86.5090 91° East  Level Estimated
Sat 02:05:32 PM 30.4000 -86.4667 271° West  Level FlightAware Approximate
Sat 02:06:32 PM 30.4005 -86.5090 91° East  Level Estimated
Sat 02:07:32 PM 30.4000 -86.4667 271° West  Level FlightAware Approximate
Sat 02:08:32 PM 30.4005 -86.5090 91° East  Level Estimated
Sat 02:09:32 PM 30.4000 -86.4667 91° East  Level FlightAware Approximate

Login

Don't have an account? Register now (free) for customized features, flight alerts, and more!